sensor_id;sensor_type;location;lat;lon;timestamp;P1;durP1;ratioP1;P2;durP2;ratioP2
35518;SDS011;21627;48.216;16.482;2023-06-26T00:00:27;8.02;;;5.97;;
35518;SDS011;21627;48.216;16.482;2023-06-26T00:02:54;8.23;;;6.13;;
35518;SDS011;21627;48.216;16.482;2023-06-26T00:05:22;9.63;;;6.10;;
35518;SDS011;21627;48.216;16.482;2023-06-26T00:07:49;9.60;;;6.28;;
35518;SDS011;21627;48.216;16.482;2023-06-26T00:10:16;8.95;;;6.43;;
35518;SDS011;21627;48.216;16.482;2023-06-26T00:12:43;10.82;;;6.57;;
35518;SDS011;21627;48.216;16.482;2023-06-26T00:15:10;9.68;;;6.72;;
35518;SDS011;21627;48.216;16.482;2023-06-26T00:17:37;8.82;;;6.60;;
35518;SDS011;21627;48.216;16.482;2023-06-26T00:20:05;8.20;;;6.00;;
35518;SDS011;21627;48.216;16.482;2023-06-26T00:22:33;9.00;;;6.47;;
35518;SDS011;21627;48.216;16.482;2023-06-26T00:25:00;10.13;;;6.55;;
35518;SDS011;21627;48.216;16.482;2023-06-26T00:27:29;16.10;;;7.15;;
35518;SDS011;21627;48.216;16.482;2023-06-26T00:29:56;10.50;;;6.53;;
35518;SDS011;21627;48.216;16.482;2023-06-26T00:32:23;8.05;;;6.13;;
35518;SDS011;21627;48.216;16.482;2023-06-26T00:34:50;9.25;;;6.20;;
35518;SDS011;21627;48.216;16.482;2023-06-26T00:37:18;13.27;;;6.68;;
35518;SDS011;21627;48.216;16.482;2023-06-26T00:39:45;11.57;;;6.10;;
35518;SDS011;21627;48.216;16.482;2023-06-26T00:42:12;8.32;;;6.03;;
35518;SDS011;21627;48.216;16.482;2023-06-26T00:44:39;8.15;;;5.95;;
35518;SDS011;21627;48.216;16.482;2023-06-26T00:47:07;7.35;;;5.78;;
35518;SDS011;21627;48.216;16.482;2023-06-26T00:49:35;7.50;;;6.22;;
35518;SDS011;21627;48.216;16.482;2023-06-26T00:52:03;7.50;;;6.07;;
35518;SDS011;21627;48.216;16.482;2023-06-26T00:54:31;9.05;;;6.53;;
35518;SDS011;21627;48.216;16.482;2023-06-26T00:56:58;8.75;;;6.45;;
35518;SDS011;21627;48.216;16.482;2023-06-26T00:59:25;10.13;;;6.25;;
35518;SDS011;21627;48.216;16.482;2023-06-26T01:01:53;9.20;;;6.57;;
35518;SDS011;21627;48.216;16.482;2023-06-26T01:04:20;10.50;;;7.03;;
35518;SDS011;21627;48.216;16.482;2023-06-26T01:06:47;9.35;;;6.30;;
35518;SDS011;21627;48.216;16.482;2023-06-26T01:09:18;10.15;;;5.90;;
35518;SDS011;21627;48.216;16.482;2023-06-26T01:11:46;8.63;;;5.82;;
35518;SDS011;21627;48.216;16.482;2023-06-26T01:14:13;9.05;;;6.22;;
35518;SDS011;21627;48.216;16.482;2023-06-26T01:16:41;9.00;;;6.28;;
35518;SDS011;21627;48.216;16.482;2023-06-26T01:19:20;8.50;;;6.00;;
35518;SDS011;21627;48.216;16.482;2023-06-26T01:21:59;8.00;;;5.85;;
35518;SDS011;21627;48.216;16.482;2023-06-26T01:28:10;8.45;;;6.25;;
35518;SDS011;21627;48.216;16.482;2023-06-26T01:30:41;9.48;;;5.68;;
35518;SDS011;21627;48.216;16.482;2023-06-26T01:33:11;11.70;;;6.65;;
35518;SDS011;21627;48.216;16.482;2023-06-26T01:35:39;9.43;;;5.38;;
35518;SDS011;21627;48.216;16.482;2023-06-26T01:40:44;9.48;;;5.95;;
35518;SDS011;21627;48.216;16.482;2023-06-26T01:43:15;8.65;;;6.13;;
35518;SDS011;21627;48.216;16.482;2023-06-26T01:46:06;8.73;;;6.07;;
35518;SDS011;21627;48.216;16.482;2023-06-26T01:48:47;9.02;;;6.20;;
35518;SDS011;21627;48.216;16.482;2023-06-26T01:51:24;9.25;;;5.85;;
35518;SDS011;21627;48.216;16.482;2023-06-26T01:54:09;8.93;;;5.75;;
35518;SDS011;21627;48.216;16.482;2023-06-26T01:56:40;8.45;;;5.97;;
35518;SDS011;21627;48.216;16.482;2023-06-26T01:59:10;8.98;;;5.80;;
35518;SDS011;21627;48.216;16.482;2023-06-26T02:01:40;6.50;;;5.55;;
35518;SDS011;21627;48.216;16.482;2023-06-26T02:04:07;6.65;;;5.28;;
35518;SDS011;21627;48.216;16.482;2023-06-26T02:06:34;10.10;;;5.50;;
35518;SDS011;21627;48.216;16.482;2023-06-26T02:09:01;13.85;;;5.97;;
35518;SDS011;21627;48.216;16.482;2023-06-26T02:11:29;8.27;;;5.65;;
35518;SDS011;21627;48.216;16.482;2023-06-26T02:13:56;11.23;;;5.88;;
35518;SDS011;21627;48.216;16.482;2023-06-26T02:16:24;7.70;;;5.80;;
35518;SDS011;21627;48.216;16.482;2023-06-26T02:18:51;7.13;;;5.53;;
35518;SDS011;21627;48.216;16.482;2023-06-26T02:21:18;8.45;;;5.25;;
35518;SDS011;21627;48.216;16.482;2023-06-26T02:23:45;9.85;;;6.28;;
35518;SDS011;21627;48.216;16.482;2023-06-26T02:26:12;10.60;;;5.65;;
35518;SDS011;21627;48.216;16.482;2023-06-26T02:28:39;9.43;;;5.38;;
35518;SDS011;21627;48.216;16.482;2023-06-26T02:31:06;10.70;;;6.30;;
35518;SDS011;21627;48.216;16.482;2023-06-26T02:33:33;7.45;;;5.13;;
35518;SDS011;21627;48.216;16.482;2023-06-26T02:36:00;12.18;;;6.22;;
35518;SDS011;21627;48.216;16.482;2023-06-26T02:38:28;8.25;;;5.75;;
35518;SDS011;21627;48.216;16.482;2023-06-26T02:40:55;8.70;;;5.75;;
35518;SDS011;21627;48.216;16.482;2023-06-26T02:43:23;8.25;;;5.40;;
35518;SDS011;21627;48.216;16.482;2023-06-26T02:45:50;9.93;;;5.78;;
35518;SDS011;21627;48.216;16.482;2023-06-26T02:48:17;8.85;;;5.82;;
35518;SDS011;21627;48.216;16.482;2023-06-26T02:50:44;7.82;;;5.70;;
35518;SDS011;21627;48.216;16.482;2023-06-26T02:53:12;11.80;;;5.40;;
35518;SDS011;21627;48.216;16.482;2023-06-26T02:55:39;6.53;;;5.78;;
35518;SDS011;21627;48.216;16.482;2023-06-26T02:58:07;10.02;;;5.75;;
35518;SDS011;21627;48.216;16.482;2023-06-26T03:00:37;10.63;;;5.47;;
35518;SDS011;21627;48.216;16.482;2023-06-26T03:03:07;7.95;;;5.40;;
35518;SDS011;21627;48.216;16.482;2023-06-26T03:05:35;7.55;;;5.50;;
35518;SDS011;21627;48.216;16.482;2023-06-26T03:08:02;9.43;;;5.72;;
35518;SDS011;21627;48.216;16.482;2023-06-26T03:10:29;7.50;;;5.47;;
35518;SDS011;21627;48.216;16.482;2023-06-26T03:12:57;8.40;;;5.70;;
35518;SDS011;21627;48.216;16.482;2023-06-26T03:15:24;7.53;;;6.00;;
35518;SDS011;21627;48.216;16.482;2023-06-26T03:17:51;8.90;;;5.95;;
35518;SDS011;21627;48.216;16.482;2023-06-26T03:20:18;9.13;;;6.40;;
35518;SDS011;21627;48.216;16.482;2023-06-26T03:22:45;8.35;;;6.00;;
35518;SDS011;21627;48.216;16.482;2023-06-26T03:25:12;10.43;;;6.78;;
35518;SDS011;21627;48.216;16.482;2023-06-26T03:27:39;9.52;;;6.28;;
35518;SDS011;21627;48.216;16.482;2023-06-26T03:30:07;9.07;;;5.30;;
35518;SDS011;21627;48.216;16.482;2023-06-26T03:32:34;10.27;;;6.10;;
35518;SDS011;21627;48.216;16.482;2023-06-26T03:35:02;10.20;;;5.63;;
35518;SDS011;21627;48.216;16.482;2023-06-26T03:37:32;10.60;;;6.28;;
35518;SDS011;21627;48.216;16.482;2023-06-26T03:39:59;7.88;;;5.97;;
35518;SDS011;21627;48.216;16.482;2023-06-26T03:42:26;9.88;;;6.75;;
35518;SDS011;21627;48.216;16.482;2023-06-26T03:44:53;8.95;;;5.95;;
35518;SDS011;21627;48.216;16.482;2023-06-26T03:47:21;8.45;;;6.45;;
35518;SDS011;21627;48.216;16.482;2023-06-26T03:49:48;9.13;;;5.72;;
35518;SDS011;21627;48.216;16.482;2023-06-26T03:52:15;9.77;;;6.22;;
35518;SDS011;21627;48.216;16.482;2023-06-26T03:54:42;9.10;;;6.28;;
35518;SDS011;21627;48.216;16.482;2023-06-26T03:57:09;10.68;;;6.95;;
35518;SDS011;21627;48.216;16.482;2023-06-26T03:59:36;10.85;;;6.72;;
35518;SDS011;21627;48.216;16.482;2023-06-26T04:02:03;10.93;;;6.15;;
35518;SDS011;21627;48.216;16.482;2023-06-26T04:04:31;9.10;;;6.50;;
35518;SDS011;21627;48.216;16.482;2023-06-26T04:06:59;12.73;;;7.40;;
35518;SDS011;21627;48.216;16.482;2023-06-26T04:09:26;11.02;;;6.50;;
35518;SDS011;21627;48.216;16.482;2023-06-26T04:11:53;12.27;;;8.13;;
35518;SDS011;21627;48.216;16.482;2023-06-26T04:14:20;10.23;;;6.88;;
35518;SDS011;21627;48.216;16.482;2023-06-26T04:16:47;11.48;;;7.82;;
35518;SDS011;21627;48.216;16.482;2023-06-26T04:19:14;11.23;;;7.20;;
35518;SDS011;21627;48.216;16.482;2023-06-26T04:21:41;13.63;;;7.78;;
35518;SDS011;21627;48.216;16.482;2023-06-26T04:24:09;11.82;;;7.30;;
35518;SDS011;21627;48.216;16.482;2023-06-26T04:26:38;11.48;;;8.13;;
35518;SDS011;21627;48.216;16.482;2023-06-26T04:29:07;11.52;;;6.93;;
35518;SDS011;21627;48.216;16.482;2023-06-26T04:31:35;11.55;;;7.50;;
35518;SDS011;21627;48.216;16.482;2023-06-26T04:34:02;16.83;;;8.07;;
35518;SDS011;21627;48.216;16.482;2023-06-26T04:36:30;13.85;;;7.50;;
35518;SDS011;21627;48.216;16.482;2023-06-26T04:38:59;12.85;;;9.15;;
35518;SDS011;21627;48.216;16.482;2023-06-26T04:41:26;11.85;;;7.90;;
35518;SDS011;21627;48.216;16.482;2023-06-26T04:43:53;10.05;;;7.38;;
35518;SDS011;21627;48.216;16.482;2023-06-26T04:46:20;9.45;;;7.32;;
35518;SDS011;21627;48.216;16.482;2023-06-26T04:48:48;11.40;;;8.27;;
35518;SDS011;21627;48.216;16.482;2023-06-26T04:51:15;10.82;;;8.23;;
35518;SDS011;21627;48.216;16.482;2023-06-26T04:53:42;10.07;;;7.65;;
35518;SDS011;21627;48.216;16.482;2023-06-26T04:56:09;14.27;;;7.90;;
35518;SDS011;21627;48.216;16.482;2023-06-26T04:58:37;12.52;;;7.05;;
35518;SDS011;21627;48.216;16.482;2023-06-26T05:01:04;10.55;;;7.35;;
35518;SDS011;21627;48.216;16.482;2023-06-26T05:03:33;11.27;;;7.50;;
35518;SDS011;21627;48.216;16.482;2023-06-26T05:06:00;12.23;;;7.90;;
35518;SDS011;21627;48.216;16.482;2023-06-26T05:08:34;10.48;;;7.15;;
35518;SDS011;21627;48.216;16.482;2023-06-26T05:11:02;9.45;;;7.10;;
35518;SDS011;21627;48.216;16.482;2023-06-26T05:13:29;14.70;;;7.57;;
35518;SDS011;21627;48.216;16.482;2023-06-26T05:15:56;13.68;;;7.85;;
35518;SDS011;21627;48.216;16.482;2023-06-26T05:18:23;14.30;;;8.00;;
35518;SDS011;21627;48.216;16.482;2023-06-26T05:20:50;10.07;;;7.38;;
35518;SDS011;21627;48.216;16.482;2023-06-26T05:23:17;14.23;;;7.47;;
35518;SDS011;21627;48.216;16.482;2023-06-26T05:25:45;14.18;;;7.90;;
35518;SDS011;21627;48.216;16.482;2023-06-26T05:28:13;11.52;;;7.47;;
35518;SDS011;21627;48.216;16.482;2023-06-26T05:30:41;12.25;;;7.43;;
35518;SDS011;21627;48.216;16.482;2023-06-26T05:33:10;10.38;;;7.10;;
35518;SDS011;21627;48.216;16.482;2023-06-26T05:35:39;10.48;;;6.97;;
35518;SDS011;21627;48.216;16.482;2023-06-26T05:38:07;13.52;;;6.85;;
35518;SDS011;21627;48.216;16.482;2023-06-26T05:40:34;16.15;;;7.88;;
35518;SDS011;21627;48.216;16.482;2023-06-26T05:43:03;14.05;;;6.93;;
35518;SDS011;21627;48.216;16.482;2023-06-26T05:45:30;12.40;;;7.10;;
35518;SDS011;21627;48.216;16.482;2023-06-26T05:47:57;13.07;;;7.13;;
35518;SDS011;21627;48.216;16.482;2023-06-26T05:50:25;9.50;;;6.30;;
35518;SDS011;21627;48.216;16.482;2023-06-26T05:52:53;9.35;;;6.03;;
35518;SDS011;21627;48.216;16.482;2023-06-26T05:55:20;7.95;;;6.13;;
35518;SDS011;21627;48.216;16.482;2023-06-26T05:57:48;8.25;;;6.07;;
35518;SDS011;21627;48.216;16.482;2023-06-26T06:00:17;8.45;;;5.88;;
35518;SDS011;21627;48.216;16.482;2023-06-26T06:02:45;9.38;;;6.35;;
35518;SDS011;21627;48.216;16.482;2023-06-26T06:05:12;8.80;;;6.03;;
35518;SDS011;21627;48.216;16.482;2023-06-26T06:07:39;9.25;;;5.50;;
35518;SDS011;21627;48.216;16.482;2023-06-26T06:10:06;7.13;;;5.18;;
35518;SDS011;21627;48.216;16.482;2023-06-26T06:12:34;13.23;;;5.65;;
35518;SDS011;21627;48.216;16.482;2023-06-26T06:15:01;7.38;;;5.47;;
35518;SDS011;21627;48.216;16.482;2023-06-26T06:17:28;7.03;;;4.80;;
35518;SDS011;21627;48.216;16.482;2023-06-26T06:19:55;9.02;;;5.50;;
35518;SDS011;21627;48.216;16.482;2023-06-26T06:22:23;8.30;;;5.22;;
35518;SDS011;21627;48.216;16.482;2023-06-26T06:24:50;7.85;;;5.82;;
35518;SDS011;21627;48.216;16.482;2023-06-26T06:27:17;8.23;;;5.30;;
35518;SDS011;21627;48.216;16.482;2023-06-26T06:29:45;11.32;;;5.50;;
35518;SDS011;21627;48.216;16.482;2023-06-26T06:32:12;9.20;;;5.70;;
35518;SDS011;21627;48.216;16.482;2023-06-26T06:34:39;7.60;;;5.13;;
35518;SDS011;21627;48.216;16.482;2023-06-26T06:37:06;8.80;;;5.40;;
35518;SDS011;21627;48.216;16.482;2023-06-26T06:39:34;9.05;;;4.93;;
35518;SDS011;21627;48.216;16.482;2023-06-26T06:42:01;9.10;;;5.40;;
35518;SDS011;21627;48.216;16.482;2023-06-26T06:44:28;7.20;;;5.28;;
35518;SDS011;21627;48.216;16.482;2023-06-26T06:46:57;10.80;;;5.35;;
35518;SDS011;21627;48.216;16.482;2023-06-26T06:49:24;8.20;;;5.03;;
35518;SDS011;21627;48.216;16.482;2023-06-26T06:51:51;7.20;;;4.95;;
35518;SDS011;21627;48.216;16.482;2023-06-26T06:54:18;10.73;;;5.80;;
35518;SDS011;21627;48.216;16.482;2023-06-26T06:56:46;8.18;;;5.20;;
35518;SDS011;21627;48.216;16.482;2023-06-26T06:59:13;10.25;;;5.32;;
35518;SDS011;21627;48.216;16.482;2023-06-26T07:01:40;12.38;;;5.30;;
35518;SDS011;21627;48.216;16.482;2023-06-26T07:04:07;10.45;;;5.47;;
35518;SDS011;21627;48.216;16.482;2023-06-26T07:06:35;10.43;;;4.93;;
35518;SDS011;21627;48.216;16.482;2023-06-26T07:09:02;6.13;;;4.65;;
35518;SDS011;21627;48.216;16.482;2023-06-26T07:11:29;12.10;;;4.60;;
35518;SDS011;21627;48.216;16.482;2023-06-26T07:13:56;10.90;;;4.70;;
35518;SDS011;21627;48.216;16.482;2023-06-26T07:16:23;6.72;;;3.72;;
35518;SDS011;21627;48.216;16.482;2023-06-26T07:18:51;10.00;;;3.90;;
35518;SDS011;21627;48.216;16.482;2023-06-26T07:21:18;9.77;;;4.78;;
35518;SDS011;21627;48.216;16.482;2023-06-26T07:23:45;11.63;;;3.70;;
35518;SDS011;21627;48.216;16.482;2023-06-26T07:26:13;6.63;;;4.03;;
35518;SDS011;21627;48.216;16.482;2023-06-26T07:28:42;4.57;;;3.72;;
35518;SDS011;21627;48.216;16.482;2023-06-26T07:31:09;7.68;;;4.07;;
35518;SDS011;21627;48.216;16.482;2023-06-26T07:33:36;7.82;;;3.83;;
35518;SDS011;21627;48.216;16.482;2023-06-26T07:36:03;6.35;;;3.50;;
35518;SDS011;21627;48.216;16.482;2023-06-26T07:38:30;8.23;;;4.57;;
35518;SDS011;21627;48.216;16.482;2023-06-26T07:40:57;9.57;;;4.07;;
35518;SDS011;21627;48.216;16.482;2023-06-26T07:43:25;6.65;;;3.75;;
35518;SDS011;21627;48.216;16.482;2023-06-26T07:45:52;15.35;;;4.18;;
35518;SDS011;21627;48.216;16.482;2023-06-26T07:48:20;6.20;;;3.88;;
35518;SDS011;21627;48.216;16.482;2023-06-26T07:50:47;7.15;;;4.57;;
35518;SDS011;21627;48.216;16.482;2023-06-26T07:53:14;9.82;;;4.00;;
35518;SDS011;21627;48.216;16.482;2023-06-26T07:55:41;8.90;;;4.20;;
35518;SDS011;21627;48.216;16.482;2023-06-26T07:58:09;9.30;;;4.22;;
35518;SDS011;21627;48.216;16.482;2023-06-26T08:00:36;7.35;;;3.75;;
35518;SDS011;21627;48.216;16.482;2023-06-26T08:03:04;6.45;;;3.80;;
35518;SDS011;21627;48.216;16.482;2023-06-26T08:05:34;8.25;;;4.13;;
35518;SDS011;21627;48.216;16.482;2023-06-26T08:08:01;5.18;;;3.90;;
35518;SDS011;21627;48.216;16.482;2023-06-26T08:10:29;6.85;;;3.97;;
35518;SDS011;21627;48.216;16.482;2023-06-26T08:12:57;5.85;;;3.70;;
35518;SDS011;21627;48.216;16.482;2023-06-26T08:15:24;6.90;;;4.13;;
35518;SDS011;21627;48.216;16.482;2023-06-26T08:17:52;6.97;;;4.15;;
35518;SDS011;21627;48.216;16.482;2023-06-26T08:20:19;7.50;;;3.95;;
35518;SDS011;21627;48.216;16.482;2023-06-26T08:22:46;5.50;;;3.88;;
35518;SDS011;21627;48.216;16.482;2023-06-26T08:25:15;4.95;;;3.83;;
35518;SDS011;21627;48.216;16.482;2023-06-26T08:27:42;6.20;;;4.03;;
35518;SDS011;21627;48.216;16.482;2023-06-26T08:30:09;5.65;;;3.78;;
35518;SDS011;21627;48.216;16.482;2023-06-26T08:32:37;6.78;;;4.47;;
35518;SDS011;21627;48.216;16.482;2023-06-26T08:35:04;4.78;;;3.72;;
35518;SDS011;21627;48.216;16.482;2023-06-26T08:37:33;6.50;;;4.00;;
35518;SDS011;21627;48.216;16.482;2023-06-26T08:40:00;8.02;;;3.90;;
35518;SDS011;21627;48.216;16.482;2023-06-26T08:42:27;7.45;;;4.68;;
35518;SDS011;21627;48.216;16.482;2023-06-26T08:44:54;5.65;;;4.07;;
35518;SDS011;21627;48.216;16.482;2023-06-26T08:47:28;9.13;;;4.25;;
35518;SDS011;21627;48.216;16.482;2023-06-26T08:50:04;6.63;;;3.97;;
35518;SDS011;21627;48.216;16.482;2023-06-26T08:52:39;6.47;;;4.00;;
35518;SDS011;21627;48.216;16.482;2023-06-26T08:55:19;5.35;;;3.63;;
35518;SDS011;21627;48.216;16.482;2023-06-26T08:57:51;6.10;;;3.95;;
35518;SDS011;21627;48.216;16.482;2023-06-26T09:00:19;8.85;;;4.35;;
35518;SDS011;21627;48.216;16.482;2023-06-26T09:02:47;6.60;;;3.83;;
35518;SDS011;21627;48.216;16.482;2023-06-26T09:05:14;6.80;;;4.05;;
35518;SDS011;21627;48.216;16.482;2023-06-26T09:07:42;7.55;;;3.58;;
35518;SDS011;21627;48.216;16.482;2023-06-26T09:10:09;7.05;;;3.72;;
35518;SDS011;21627;48.216;16.482;2023-06-26T09:12:37;8.07;;;4.53;;
35518;SDS011;21627;48.216;16.482;2023-06-26T09:15:05;7.63;;;3.80;;
35518;SDS011;21627;48.216;16.482;2023-06-26T09:17:33;8.65;;;3.70;;
35518;SDS011;21627;48.216;16.482;2023-06-26T09:20:07;9.90;;;4.38;;
35518;SDS011;21627;48.216;16.482;2023-06-26T09:22:36;10.02;;;3.88;;
35518;SDS011;21627;48.216;16.482;2023-06-26T09:25:07;8.32;;;3.95;;
35518;SDS011;21627;48.216;16.482;2023-06-26T09:27:35;10.88;;;4.20;;
35518;SDS011;21627;48.216;16.482;2023-06-26T09:30:03;5.38;;;4.13;;
35518;SDS011;21627;48.216;16.482;2023-06-26T09:32:36;8.85;;;4.55;;
35518;SDS011;21627;48.216;16.482;2023-06-26T09:35:04;6.68;;;3.85;;
35518;SDS011;21627;48.216;16.482;2023-06-26T09:37:31;8.40;;;4.40;;
35518;SDS011;21627;48.216;16.482;2023-06-26T09:40:00;6.13;;;4.85;;
35518;SDS011;21627;48.216;16.482;2023-06-26T09:42:28;5.15;;;4.13;;
35518;SDS011;21627;48.216;16.482;2023-06-26T09:44:56;15.93;;;4.15;;
35518;SDS011;21627;48.216;16.482;2023-06-26T09:47:23;7.70;;;4.63;;
35518;SDS011;21627;48.216;16.482;2023-06-26T09:49:51;9.82;;;3.58;;
35518;SDS011;21627;48.216;16.482;2023-06-26T09:52:19;5.25;;;4.03;;
35518;SDS011;21627;48.216;16.482;2023-06-26T09:54:46;5.32;;;3.90;;
35518;SDS011;21627;48.216;16.482;2023-06-26T09:57:15;4.53;;;3.65;;
35518;SDS011;21627;48.216;16.482;2023-06-26T09:59:44;6.88;;;4.60;;
35518;SDS011;21627;48.216;16.482;2023-06-26T10:02:11;8.73;;;4.22;;
35518;SDS011;21627;48.216;16.482;2023-06-26T10:04:39;4.75;;;3.72;;
35518;SDS011;21627;48.216;16.482;2023-06-26T10:07:08;4.72;;;3.70;;
35518;SDS011;21627;48.216;16.482;2023-06-26T10:09:42;6.18;;;3.80;;
35518;SDS011;21627;48.216;16.482;2023-06-26T10:12:21;7.20;;;4.18;;
35518;SDS011;21627;48.216;16.482;2023-06-26T10:14:57;4.72;;;3.83;;
35518;SDS011;21627;48.216;16.482;2023-06-26T10:17:28;8.23;;;3.88;;
35518;SDS011;21627;48.216;16.482;2023-06-26T10:20:02;5.82;;;3.90;;
35518;SDS011;21627;48.216;16.482;2023-06-26T10:22:36;5.57;;;3.90;;
35518;SDS011;21627;48.216;16.482;2023-06-26T10:25:14;5.47;;;4.00;;
35518;SDS011;21627;48.216;16.482;2023-06-26T10:27:52;5.32;;;3.40;;
35518;SDS011;21627;48.216;16.482;2023-06-26T10:30:24;4.65;;;3.38;;
35518;SDS011;21627;48.216;16.482;2023-06-26T10:32:55;6.68;;;3.50;;
35518;SDS011;21627;48.216;16.482;2023-06-26T10:35:23;6.50;;;3.42;;
35518;SDS011;21627;48.216;16.482;2023-06-26T10:37:51;6.38;;;3.90;;
35518;SDS011;21627;48.216;16.482;2023-06-26T10:40:22;5.75;;;3.38;;
35518;SDS011;21627;48.216;16.482;2023-06-26T10:43:06;9.88;;;3.50;;
35518;SDS011;21627;48.216;16.482;2023-06-26T10:45:36;4.35;;;3.15;;
35518;SDS011;21627;48.216;16.482;2023-06-26T10:48:08;5.03;;;2.97;;
35518;SDS011;21627;48.216;16.482;2023-06-26T10:50:39;7.13;;;3.00;;
35518;SDS011;21627;48.216;16.482;2023-06-26T10:55:56;5.20;;;3.45;;
35518;SDS011;21627;48.216;16.482;2023-06-26T11:01:13;6.78;;;2.97;;
35518;SDS011;21627;48.216;16.482;2023-06-26T11:03:59;5.05;;;3.42;;
35518;SDS011;21627;48.216;16.482;2023-06-26T11:06:37;4.50;;;2.95;;
35518;SDS011;21627;48.216;16.482;2023-06-26T11:14:21;3.67;;;3.08;;
35518;SDS011;21627;48.216;16.482;2023-06-26T11:16:50;5.35;;;3.30;;
35518;SDS011;21627;48.216;16.482;2023-06-26T11:19:18;7.75;;;2.97;;
35518;SDS011;21627;48.216;16.482;2023-06-26T11:21:49;4.03;;;2.65;;
35518;SDS011;21627;48.216;16.482;2023-06-26T11:24:17;7.07;;;3.00;;
35518;SDS011;21627;48.216;16.482;2023-06-26T11:26:45;5.53;;;3.65;;
35518;SDS011;21627;48.216;16.482;2023-06-26T11:29:12;4.88;;;3.08;;
35518;SDS011;21627;48.216;16.482;2023-06-26T11:31:40;5.55;;;3.47;;
35518;SDS011;21627;48.216;16.482;2023-06-26T11:34:09;5.63;;;3.75;;
35518;SDS011;21627;48.216;16.482;2023-06-26T11:36:39;4.80;;;3.20;;
35518;SDS011;21627;48.216;16.482;2023-06-26T11:39:12;4.15;;;3.28;;
35518;SDS011;21627;48.216;16.482;2023-06-26T11:41:40;5.18;;;3.00;;
35518;SDS011;21627;48.216;16.482;2023-06-26T11:44:08;3.33;;;2.90;;
35518;SDS011;21627;48.216;16.482;2023-06-26T11:46:37;3.88;;;2.90;;
35518;SDS011;21627;48.216;16.482;2023-06-26T11:49:08;7.80;;;3.75;;
35518;SDS011;21627;48.216;16.482;2023-06-26T11:51:35;5.82;;;2.85;;
35518;SDS011;21627;48.216;16.482;2023-06-26T11:54:03;6.72;;;3.20;;
35518;SDS011;21627;48.216;16.482;2023-06-26T11:56:31;4.72;;;3.58;;
35518;SDS011;21627;48.216;16.482;2023-06-26T11:59:03;4.05;;;3.13;;
35518;SDS011;21627;48.216;16.482;2023-06-26T12:04:12;8.82;;;3.67;;
35518;SDS011;21627;48.216;16.482;2023-06-26T12:06:42;3.85;;;3.00;;
35518;SDS011;21627;48.216;16.482;2023-06-26T12:09:14;5.95;;;3.88;;
35518;SDS011;21627;48.216;16.482;2023-06-26T12:11:46;5.88;;;3.10;;
35518;SDS011;21627;48.216;16.482;2023-06-26T12:14:19;5.75;;;3.50;;
35518;SDS011;21627;48.216;16.482;2023-06-26T12:16:48;4.20;;;2.95;;
35518;SDS011;21627;48.216;16.482;2023-06-26T12:19:16;7.65;;;3.15;;
35518;SDS011;21627;48.216;16.482;2023-06-26T12:21:44;9.57;;;3.53;;
35518;SDS011;21627;48.216;16.482;2023-06-26T12:24:13;5.50;;;3.58;;
35518;SDS011;21627;48.216;16.482;2023-06-26T12:26:45;8.35;;;3.15;;
35518;SDS011;21627;48.216;16.482;2023-06-26T12:29:16;5.97;;;3.60;;
35518;SDS011;21627;48.216;16.482;2023-06-26T12:31:46;5.80;;;3.50;;
35518;SDS011;21627;48.216;16.482;2023-06-26T12:34:27;6.60;;;3.72;;
35518;SDS011;21627;48.216;16.482;2023-06-26T12:37:00;8.50;;;3.78;;
35518;SDS011;21627;48.216;16.482;2023-06-26T12:39:29;13.50;;;3.92;;
35518;SDS011;21627;48.216;16.482;2023-06-26T12:42:12;4.25;;;3.42;;
35518;SDS011;21627;48.216;16.482;2023-06-26T12:44:42;4.90;;;2.90;;
35518;SDS011;21627;48.216;16.482;2023-06-26T12:47:09;4.93;;;3.65;;
35518;SDS011;21627;48.216;16.482;2023-06-26T12:49:40;4.40;;;3.25;;
35518;SDS011;21627;48.216;16.482;2023-06-26T12:52:10;8.32;;;3.35;;
35518;SDS011;21627;48.216;16.482;2023-06-26T12:54:42;8.52;;;3.47;;
35518;SDS011;21627;48.216;16.482;2023-06-26T12:57:10;5.25;;;3.33;;
35518;SDS011;21627;48.216;16.482;2023-06-26T12:59:37;6.22;;;3.20;;
35518;SDS011;21627;48.216;16.482;2023-06-26T13:02:05;4.85;;;2.90;;
35518;SDS011;21627;48.216;16.482;2023-06-26T13:04:33;8.77;;;2.92;;
35518;SDS011;21627;48.216;16.482;2023-06-26T13:07:00;3.80;;;2.97;;
35518;SDS011;21627;48.216;16.482;2023-06-26T13:09:31;3.90;;;2.80;;
35518;SDS011;21627;48.216;16.482;2023-06-26T13:12:00;4.88;;;3.15;;
35518;SDS011;21627;48.216;16.482;2023-06-26T13:14:30;3.88;;;2.85;;
35518;SDS011;21627;48.216;16.482;2023-06-26T13:17:00;3.90;;;2.95;;
35518;SDS011;21627;48.216;16.482;2023-06-26T13:19:29;4.63;;;3.03;;
35518;SDS011;21627;48.216;16.482;2023-06-26T13:21:56;4.35;;;3.15;;
35518;SDS011;21627;48.216;16.482;2023-06-26T13:24:23;6.13;;;3.38;;
35518;SDS011;21627;48.216;16.482;2023-06-26T13:26:50;4.20;;;3.03;;
35518;SDS011;21627;48.216;16.482;2023-06-26T13:29:18;4.88;;;3.15;;
35518;SDS011;21627;48.216;16.482;2023-06-26T13:31:45;8.93;;;3.00;;
35518;SDS011;21627;48.216;16.482;2023-06-26T13:34:21;21.05;;;4.38;;
35518;SDS011;21627;48.216;16.482;2023-06-26T13:36:50;7.88;;;3.50;;
35518;SDS011;21627;48.216;16.482;2023-06-26T13:39:17;4.93;;;3.10;;
35518;SDS011;21627;48.216;16.482;2023-06-26T13:41:45;6.72;;;3.60;;
35518;SDS011;21627;48.216;16.482;2023-06-26T13:44:12;6.72;;;3.45;;
35518;SDS011;21627;48.216;16.482;2023-06-26T13:46:52;4.18;;;3.17;;
35518;SDS011;21627;48.216;16.482;2023-06-26T13:49:20;7.00;;;3.53;;
35518;SDS011;21627;48.216;16.482;2023-06-26T13:51:47;8.82;;;3.55;;
35518;SDS011;21627;48.216;16.482;2023-06-26T13:54:14;4.15;;;3.30;;
35518;SDS011;21627;48.216;16.482;2023-06-26T13:56:41;5.70;;;3.20;;
35518;SDS011;21627;48.216;16.482;2023-06-26T13:59:09;4.78;;;3.20;;
35518;SDS011;21627;48.216;16.482;2023-06-26T14:01:39;5.32;;;3.20;;
35518;SDS011;21627;48.216;16.482;2023-06-26T14:04:09;4.35;;;3.17;;
35518;SDS011;21627;48.216;16.482;2023-06-26T14:06:36;3.40;;;3.10;;
35518;SDS011;21627;48.216;16.482;2023-06-26T14:09:03;4.20;;;3.15;;
35518;SDS011;21627;48.216;16.482;2023-06-26T14:11:30;8.00;;;3.30;;
35518;SDS011;21627;48.216;16.482;2023-06-26T14:13:59;4.63;;;3.17;;
35518;SDS011;21627;48.216;16.482;2023-06-26T14:16:26;7.47;;;3.47;;
35518;SDS011;21627;48.216;16.482;2023-06-26T14:18:55;4.75;;;3.75;;
35518;SDS011;21627;48.216;16.482;2023-06-26T14:21:22;5.07;;;3.60;;
35518;SDS011;21627;48.216;16.482;2023-06-26T14:23:50;4.40;;;3.33;;
35518;SDS011;21627;48.216;16.482;2023-06-26T14:26:17;5.82;;;3.50;;
35518;SDS011;21627;48.216;16.482;2023-06-26T14:28:44;5.68;;;3.80;;
35518;SDS011;21627;48.216;16.482;2023-06-26T14:31:11;5.40;;;3.45;;
35518;SDS011;21627;48.216;16.482;2023-06-26T14:33:39;4.30;;;3.80;;
35518;SDS011;21627;48.216;16.482;2023-06-26T14:36:06;5.03;;;3.78;;
35518;SDS011;21627;48.216;16.482;2023-06-26T14:38:33;5.82;;;3.88;;
35518;SDS011;21627;48.216;16.482;2023-06-26T14:41:00;5.20;;;3.63;;
35518;SDS011;21627;48.216;16.482;2023-06-26T14:43:28;6.72;;;3.95;;
35518;SDS011;21627;48.216;16.482;2023-06-26T14:45:55;6.55;;;4.03;;
35518;SDS011;21627;48.216;16.482;2023-06-26T14:48:23;6.13;;;3.70;;
35518;SDS011;21627;48.216;16.482;2023-06-26T14:50:50;9.45;;;4.15;;
35518;SDS011;21627;48.216;16.482;2023-06-26T14:53:17;5.78;;;3.92;;
35518;SDS011;21627;48.216;16.482;2023-06-26T14:55:44;5.70;;;3.83;;
35518;SDS011;21627;48.216;16.482;2023-06-26T14:58:11;7.65;;;4.22;;